createdAt,value
2023-05-17T00:00:03.045Z,58
2023-05-17T00:20:02.848Z,59
2023-05-17T00:40:03.792Z,59
2023-05-17T01:00:03.316Z,60
2023-05-17T01:20:03.256Z,60
2023-05-17T01:40:03.048Z,61
2023-05-17T02:00:02.463Z,62
2023-05-17T02:20:03.467Z,63
2023-05-17T02:40:02.975Z,64
2023-05-17T03:00:02.707Z,65
2023-05-17T03:20:03.454Z,67
2023-05-17T03:40:02.926Z,69
2023-05-17T04:00:02.871Z,71
2023-05-17T04:20:02.554Z,72
2023-05-17T04:40:03.157Z,72
2023-05-17T05:00:02.783Z,71
2023-05-17T05:20:03.366Z,70
2023-05-17T05:40:03.221Z,67
2023-05-17T06:00:02.879Z,63
2023-05-17T06:20:02.947Z,60
2023-05-17T06:40:16.336Z,57
2023-05-17T07:00:04.008Z,56
2023-05-17T07:20:03.101Z,53
2023-05-17T07:40:02.954Z,49
2023-05-17T08:00:02.757Z,49
2023-05-17T08:20:02.533Z,46
2023-05-17T08:40:03.153Z,44
2023-05-17T09:00:03.131Z,42
2023-05-17T09:20:03.595Z,40
2023-05-17T09:40:03.287Z,39
2023-05-17T10:00:02.714Z,37
2023-05-17T10:20:03.510Z,35
2023-05-17T10:40:02.991Z,34
2023-05-17T11:00:02.651Z,34
2023-05-17T11:20:02.882Z,34
2023-05-17T11:40:02.428Z,33
2023-05-17T12:00:03.304Z,33
2023-05-17T12:20:03.085Z,33
2023-05-17T12:40:02.542Z,34
2023-05-17T13:00:03.264Z,35
2023-05-17T13:20:03.444Z,35
2023-05-17T13:40:02.988Z,36
2023-05-17T14:00:02.448Z,36
2023-05-17T14:20:03.235Z,35
2023-05-17T14:40:09.383Z,35
2023-05-17T15:00:03.096Z,36
2023-05-17T15:20:02.848Z,36
2023-05-17T15:40:02.448Z,36
2023-05-17T16:00:03.107Z,36
2023-05-17T16:20:03.295Z,36
2023-05-17T16:40:02.866Z,35
2023-05-17T17:00:03.586Z,35
2023-05-17T17:20:03.076Z,36
2023-05-17T17:40:02.706Z,36
2023-05-17T18:00:02.985Z,37
2023-05-17T18:20:02.535Z,38
2023-05-17T18:40:03.046Z,39
2023-05-17T19:00:02.856Z,40
2023-05-17T19:20:02.783Z,42
2023-05-17T19:40:03.139Z,43
2023-05-17T20:00:02.638Z,45
2023-05-17T20:20:02.796Z,48
2023-05-17T20:40:03.275Z,49
2023-05-17T21:00:02.636Z,49
2023-05-17T21:20:03.121Z,50
2023-05-17T21:40:02.408Z,52
2023-05-17T22:00:03.082Z,53
2023-05-17T22:20:02.364Z,54
2023-05-17T22:40:03.016Z,54
2023-05-17T23:00:02.395Z,56
2023-05-17T23:20:03.122Z,57
2023-05-17T23:40:02.618Z,57
